createdAt,value
2022-09-28T00:01:08.138Z,22.05
2022-09-28T00:03:35.639Z,22.04
2022-09-28T00:06:07.481Z,22.04
2022-09-28T00:08:35.373Z,22.02
2022-09-28T00:11:03.840Z,22.02
2022-09-28T00:13:31.719Z,22.02
2022-09-28T00:16:01.496Z,22.02
2022-09-28T00:18:28.428Z,22.00
2022-09-28T00:21:15.148Z,22.00
2022-09-28T00:24:00.670Z,22.02
2022-09-28T00:26:28.669Z,22.00
2022-09-28T00:28:58.714Z,22.00
2022-09-28T00:31:28.095Z,21.99
2022-09-28T00:33:56.819Z,22.00
2022-09-28T00:36:24.663Z,21.97
2022-09-28T00:38:52.275Z,21.99
2022-09-28T00:41:18.779Z,21.99
2022-09-28T00:43:45.339Z,21.97
2022-09-28T00:46:35.552Z,21.98
2022-09-28T00:49:09.188Z,21.98
2022-09-28T00:51:37.182Z,21.97
2022-09-28T00:54:09.492Z,21.97
2022-09-28T00:56:40.545Z,21.96
2022-09-28T00:59:08.795Z,21.96
2022-09-28T01:01:36.051Z,21.96
2022-09-28T01:04:04.123Z,21.94
2022-09-28T01:06:33.787Z,21.95
2022-09-28T01:09:04.296Z,21.95
2022-09-28T01:11:31.982Z,21.95
2022-09-28T01:13:59.568Z,21.93
2022-09-28T01:16:32.310Z,21.92
2022-09-28T01:19:12.721Z,21.92
2022-09-28T01:24:35.722Z,21.91
2022-09-28T01:27:11.554Z,21.93
2022-09-28T01:33:01.451Z,21.92
2022-09-28T01:35:41.104Z,21.90
2022-09-28T01:38:14.684Z,21.91
2022-09-28T01:40:42.011Z,21.88
2022-09-28T01:43:16.917Z,21.89
2022-09-28T01:45:55.298Z,21.88
2022-09-28T01:50:58.009Z,21.89
2022-09-28T01:53:39.091Z,21.89
2022-09-28T01:56:12.331Z,21.89
2022-09-28T01:58:51.461Z,21.88
2022-09-28T02:01:26.821Z,21.86
2022-09-28T02:04:07.152Z,21.89
2022-09-28T02:06:42.029Z,21.88
2022-09-28T02:09:13.833Z,21.88
2022-09-28T02:11:45.313Z,21.87
2022-09-28T02:14:17.136Z,21.87
2022-09-28T02:16:46.510Z,21.88
2022-09-28T02:19:15.864Z,21.86
2022-09-28T02:21:49.523Z,21.85
2022-09-28T02:24:22.892Z,21.83
2022-09-28T02:26:51.864Z,21.87
2022-09-28T02:29:18.611Z,21.85
2022-09-28T02:31:45.297Z,21.84
2022-09-28T02:36:51.816Z,21.83
2022-09-28T02:39:19.113Z,21.85
2022-09-28T02:41:55.146Z,21.83
2022-09-28T02:44:30.785Z,21.84
2022-09-28T02:47:39.075Z,21.83
2022-09-28T02:50:43.973Z,21.82
2022-09-28T02:53:40.383Z,21.82
2022-09-28T02:56:15.951Z,21.82
2022-09-28T02:58:57.655Z,21.82
2022-09-28T03:01:50.441Z,21.82
2022-09-28T03:04:35.047Z,21.81
2022-09-28T03:07:09.497Z,21.83
2022-09-28T03:10:14.500Z,21.81
2022-09-28T03:12:43.397Z,21.81
2022-09-28T03:15:19.105Z,21.80
2022-09-28T03:17:45.990Z,21.78
2022-09-28T03:20:12.846Z,21.78
2022-09-28T03:22:39.645Z,21.78
2022-09-28T03:25:07.898Z,21.78
2022-09-28T03:27:34.773Z,21.78
2022-09-28T03:30:01.553Z,21.76
2022-09-28T03:32:28.069Z,21.77
2022-09-28T03:34:54.514Z,21.77
2022-09-28T03:37:20.993Z,21.76
2022-09-28T03:39:47.484Z,21.75
2022-09-28T03:42:13.922Z,21.76
2022-09-28T03:44:40.469Z,21.77
2022-09-28T03:47:08.691Z,21.77
2022-09-28T03:49:35.339Z,21.78
2022-09-28T03:52:02.533Z,21.80
2022-09-28T03:54:29.218Z,21.81
2022-09-28T03:56:55.865Z,21.84
2022-09-28T03:59:22.341Z,21.85
2022-09-28T04:01:50.280Z,21.88
2022-09-28T04:04:16.937Z,21.90
2022-09-28T04:06:43.769Z,21.92
2022-09-28T04:09:10.998Z,21.92
2022-09-28T04:11:53.133Z,21.93
2022-09-28T04:14:24.721Z,21.95
2022-09-28T04:16:54.459Z,21.96
2022-09-28T04:19:25.323Z,21.98
2022-09-28T04:21:51.928Z,21.99
2022-09-28T04:24:18.758Z,21.99
2022-09-28T04:26:45.426Z,21.99
2022-09-28T04:29:19.253Z,22.00
2022-09-28T04:31:49.845Z,22.00
2022-09-28T04:34:21.701Z,22.01
2022-09-28T04:36:48.994Z,22.01
2022-09-28T04:39:17.003Z,22.01
2022-09-28T04:41:43.766Z,22.02
2022-09-28T04:44:10.329Z,22.01
2022-09-28T04:46:36.826Z,22.02
2022-09-28T04:49:03.570Z,22.02
2022-09-28T04:51:33.428Z,22.02
2022-09-28T04:53:59.952Z,22.02
2022-09-28T04:56:26.498Z,22.03
2022-09-28T04:58:53.103Z,22.02
2022-09-28T05:01:23.618Z,22.03
2022-09-28T05:03:51.153Z,22.03
2022-09-28T05:06:17.970Z,22.02
2022-09-28T05:08:46.886Z,22.04
2022-09-28T05:11:14.643Z,22.05
2022-09-28T05:13:43.776Z,22.05
2022-09-28T05:16:11.037Z,22.05
2022-09-28T05:18:38.000Z,22.05
2022-09-28T05:21:09.313Z,22.05
2022-09-28T05:23:35.788Z,22.06
2022-09-28T05:26:03.032Z,22.05
2022-09-28T05:28:32.054Z,22.06
2022-09-28T05:31:03.260Z,22.05
2022-09-28T05:33:31.265Z,22.07
2022-09-28T05:36:01.285Z,22.06
2022-09-28T05:38:28.454Z,22.07
2022-09-28T05:40:54.984Z,22.05
2022-09-28T05:43:21.841Z,22.07
2022-09-28T05:45:52.821Z,22.06
2022-09-28T05:48:21.850Z,22.07
2022-09-28T05:50:52.536Z,22.07
2022-09-28T05:53:20.141Z,22.07
2022-09-28T05:55:46.717Z,22.09
2022-09-28T05:58:13.231Z,22.09
2022-09-28T06:00:40.361Z,22.06
2022-09-28T06:03:11.003Z,22.07
2022-09-28T06:05:39.360Z,22.07
2022-09-28T06:08:08.359Z,22.09
2022-09-28T06:10:35.000Z,22.10
2022-09-28T06:13:02.139Z,22.10
2022-09-28T06:15:30.702Z,22.11
2022-09-28T06:18:02.174Z,22.11
2022-09-28T06:20:31.161Z,22.11
2022-09-28T06:22:57.649Z,22.11
2022-09-28T06:25:27.586Z,22.10
2022-09-28T06:27:58.976Z,22.10
2022-09-28T06:30:27.391Z,22.11
2022-09-28T06:32:55.970Z,22.09
2022-09-28T06:35:25.365Z,22.10
2022-09-28T06:37:52.838Z,22.10
2022-09-28T06:40:20.697Z,22.10
2022-09-28T06:43:03.472Z,22.09
2022-09-28T06:45:30.812Z,22.09
2022-09-28T06:47:59.781Z,22.09
2022-09-28T06:50:28.112Z,22.10
2022-09-28T06:52:55.388Z,22.11
2022-09-28T06:55:22.243Z,22.12
2022-09-28T06:57:58.078Z,22.12
2022-09-28T07:00:25.070Z,22.13
2022-09-28T07:02:51.520Z,22.13
2022-09-28T07:05:19.256Z,22.14
2022-09-28T07:07:46.194Z,22.14
2022-09-28T07:10:12.878Z,22.14
2022-09-28T07:12:40.556Z,22.15
2022-09-28T07:15:07.620Z,22.15
2022-09-28T07:17:41.548Z,22.15
2022-09-28T07:20:19.589Z,22.15
2022-09-28T07:22:48.335Z,22.14
2022-09-28T07:25:14.786Z,22.14
2022-09-28T07:27:41.261Z,22.15
2022-09-28T07:30:08.224Z,22.15
2022-09-28T07:32:37.315Z,22.15
2022-09-28T07:35:10.748Z,22.17
2022-09-28T07:37:37.536Z,22.17
2022-09-28T07:40:24.386Z,22.18
2022-09-28T07:42:51.023Z,22.18
2022-09-28T07:45:17.890Z,22.17
2022-09-28T07:47:45.823Z,22.17
2022-09-28T07:50:12.820Z,22.19
2022-09-28T07:52:39.310Z,22.20
2022-09-28T07:55:07.360Z,22.18
2022-09-28T07:57:34.868Z,22.18
2022-09-28T08:00:02.326Z,22.18
2022-09-28T08:02:28.891Z,22.18
2022-09-28T08:04:56.341Z,22.17
2022-09-28T08:07:24.240Z,22.18
2022-09-28T08:09:51.323Z,22.19
2022-09-28T08:12:19.626Z,22.19
2022-09-28T08:14:47.176Z,22.19
2022-09-28T08:17:13.888Z,22.19
2022-09-28T08:19:59.110Z,22.20
2022-09-28T08:22:25.683Z,22.21
2022-09-28T08:24:52.145Z,22.21
2022-09-28T08:27:18.598Z,22.21
2022-09-28T08:29:45.190Z,22.21
2022-09-28T08:32:11.716Z,22.21
2022-09-28T08:34:40.413Z,22.23
2022-09-28T08:37:12.532Z,22.22
2022-09-28T08:39:39.243Z,22.22
2022-09-28T08:42:16.858Z,22.23
2022-09-28T08:44:50.098Z,22.23
2022-09-28T08:47:39.037Z,22.25
2022-09-28T08:50:13.838Z,22.24
2022-09-28T08:52:40.605Z,22.26
2022-09-28T08:55:19.107Z,22.24
2022-09-28T08:57:56.090Z,22.25
2022-09-28T09:00:38.808Z,22.25
2022-09-28T09:03:15.095Z,22.26
2022-09-28T09:06:07.734Z,22.26
2022-09-28T09:08:40.223Z,22.27
2022-09-28T09:11:27.496Z,22.26
2022-09-28T09:14:27.708Z,22.25
2022-09-28T09:17:03.087Z,22.26
2022-09-28T09:19:35.585Z,22.26
2022-09-28T09:22:16.752Z,22.27
2022-09-28T09:24:48.423Z,22.25
2022-09-28T09:27:32.786Z,22.26
2022-09-28T09:30:19.370Z,22.27
2022-09-28T09:33:10.387Z,22.29
2022-09-28T09:36:22.384Z,22.30
2022-09-28T09:39:07.303Z,22.29
2022-09-28T09:42:06.082Z,22.30
2022-09-28T09:44:52.473Z,22.29
2022-09-28T09:47:37.963Z,22.32
2022-09-28T09:50:42.672Z,22.32
2022-09-28T09:53:25.332Z,22.34
2022-09-28T09:55:57.340Z,22.36
2022-09-28T09:58:34.064Z,22.38
2022-09-28T10:01:12.540Z,22.39
2022-09-28T10:03:46.164Z,22.40
2022-09-28T10:06:19.466Z,22.42
2022-09-28T10:08:55.948Z,22.48
2022-09-28T10:11:31.425Z,22.49
2022-09-28T10:13:58.467Z,22.50
2022-09-28T10:16:25.165Z,22.51
2022-09-28T10:18:51.697Z,22.53
2022-09-28T10:21:21.524Z,22.55
2022-09-28T10:23:55.031Z,22.56
2022-09-28T10:26:32.390Z,22.59
2022-09-28T10:29:13.127Z,22.60
2022-09-28T10:31:48.906Z,22.60
2022-09-28T10:34:19.057Z,22.61
2022-09-28T10:36:56.135Z,22.61
2022-09-28T10:39:44.676Z,22.62
2022-09-28T10:42:21.019Z,22.62
2022-09-28T10:44:58.906Z,22.63
2022-09-28T10:47:30.619Z,22.64
2022-09-28T10:49:58.239Z,22.64
2022-09-28T10:52:29.970Z,22.64
2022-09-28T10:54:56.752Z,22.65
2022-09-28T10:57:35.524Z,22.65
2022-09-28T11:00:03.381Z,22.66
2022-09-28T11:02:38.745Z,22.65
2022-09-28T11:05:07.825Z,22.65
2022-09-28T11:07:45.488Z,22.64
2022-09-28T11:10:39.333Z,22.64
2022-09-28T11:13:09.503Z,22.64
2022-09-28T11:15:42.657Z,22.64
2022-09-28T11:18:18.701Z,22.64
2022-09-28T11:20:45.622Z,22.64
2022-09-28T11:23:23.994Z,22.65
2022-09-28T11:26:09.359Z,22.67
2022-09-28T11:28:38.114Z,22.68
2022-09-28T11:31:07.985Z,22.67
2022-09-28T11:33:45.006Z,22.69
2022-09-28T11:36:22.563Z,22.70
2022-09-28T11:39:09.089Z,22.71
2022-09-28T11:41:52.884Z,22.71
2022-09-28T11:44:37.464Z,22.72
2022-09-28T11:47:10.014Z,22.73
2022-09-28T11:49:43.849Z,22.73
2022-09-28T11:52:22.481Z,22.73
2022-09-28T11:54:55.533Z,22.73
2022-09-28T11:57:26.820Z,22.74
2022-09-28T12:00:01.918Z,22.74
2022-09-28T12:02:37.267Z,22.73
2022-09-28T12:05:20.490Z,22.74
2022-09-28T12:07:56.533Z,22.74
2022-09-28T12:10:37.019Z,22.73
2022-09-28T12:13:11.547Z,22.74
2022-09-28T12:16:23.024Z,22.72
2022-09-28T12:21:55.061Z,22.71
2022-09-28T12:24:44.140Z,22.71
2022-09-28T12:27:10.526Z,22.70
2022-09-28T12:29:42.169Z,22.70
2022-09-28T12:32:31.859Z,22.69
2022-09-28T12:34:58.689Z,22.69
2022-09-28T12:37:45.825Z,22.69
2022-09-28T12:40:37.641Z,22.68
2022-09-28T12:43:22.310Z,22.68
2022-09-28T12:46:18.255Z,22.68
2022-09-28T12:52:32.191Z,22.70
2022-09-28T12:55:23.141Z,22.70
2022-09-28T12:58:06.463Z,22.68
2022-09-28T13:00:54.711Z,22.69
2022-09-28T13:03:41.221Z,22.68
2022-09-28T13:06:25.901Z,22.69
2022-09-28T13:09:01.596Z,22.69
2022-09-28T13:11:31.989Z,22.68
2022-09-28T13:14:32.759Z,22.68
2022-09-28T13:17:41.803Z,22.70
2022-09-28T13:20:32.702Z,22.68
2022-09-28T13:23:11.602Z,22.69
2022-09-28T13:25:44.532Z,22.70
2022-09-28T13:28:15.533Z,22.69
2022-09-28T13:30:45.134Z,22.71
2022-09-28T13:33:20.391Z,22.71
2022-09-28T13:35:47.101Z,22.72
2022-09-28T13:38:16.348Z,22.74
2022-09-28T13:41:06.057Z,22.72
2022-09-28T13:44:13.398Z,22.74
2022-09-28T13:47:06.922Z,22.73
2022-09-28T13:50:03.015Z,22.71
2022-09-28T13:53:28.178Z,22.72
2022-09-28T13:56:08.622Z,22.71
2022-09-28T13:58:48.725Z,22.70
2022-09-28T14:01:21.730Z,22.71
2022-09-28T14:04:12.721Z,22.70
2022-09-28T14:06:47.489Z,22.69
2022-09-28T14:09:16.069Z,22.69
2022-09-28T14:11:56.712Z,22.68
2022-09-28T14:14:31.206Z,22.69
2022-09-28T14:17:27.130Z,22.68
2022-09-28T14:20:00.202Z,22.67
2022-09-28T14:22:53.232Z,22.69
2022-09-28T14:25:30.364Z,22.68
2022-09-28T14:28:34.484Z,22.69
2022-09-28T14:31:08.708Z,22.67
2022-09-28T14:33:35.593Z,22.67
2022-09-28T14:36:44.547Z,22.66
2022-09-28T14:39:39.761Z,22.67
2022-09-28T14:42:13.405Z,22.67
2022-09-28T14:45:07.473Z,22.67
2022-09-28T14:48:12.344Z,22.67
2022-09-28T14:50:39.335Z,22.66
2022-09-28T14:53:20.823Z,22.65
2022-09-28T14:55:50.322Z,22.66
2022-09-28T14:58:26.771Z,22.66
2022-09-28T15:01:11.833Z,22.65
2022-09-28T15:03:41.838Z,22.64
2022-09-28T15:06:16.150Z,22.65
2022-09-28T15:08:42.864Z,22.64
2022-09-28T15:11:18.123Z,22.63
2022-09-28T15:13:44.662Z,22.64
2022-09-28T15:16:14.214Z,22.63
2022-09-28T15:18:50.395Z,22.63
2022-09-28T15:21:17.545Z,22.64
2022-09-28T15:23:45.465Z,22.63
2022-09-28T15:26:28.915Z,22.63
2022-09-28T15:31:36.429Z,22.63
2022-09-28T15:34:21.972Z,22.64
2022-09-28T15:36:49.947Z,22.63
2022-09-28T15:39:22.649Z,22.62
2022-09-28T15:41:50.877Z,22.61
2022-09-28T15:44:25.273Z,22.61
2022-09-28T15:47:05.410Z,22.62
2022-09-28T15:49:46.381Z,22.61
2022-09-28T15:52:54.090Z,22.62
2022-09-28T15:55:37.410Z,22.62
2022-09-28T15:58:17.404Z,22.63
2022-09-28T16:00:56.827Z,22.63
2022-09-28T16:03:29.304Z,22.62
2022-09-28T16:05:58.466Z,22.61
2022-09-28T16:08:32.953Z,22.63
2022-09-28T16:11:12.245Z,22.62
2022-09-28T16:13:55.150Z,22.62
2022-09-28T16:16:29.865Z,22.61
2022-09-28T16:19:00.487Z,22.61
2022-09-28T16:21:47.767Z,22.61
2022-09-28T16:24:25.703Z,22.62
2022-09-28T16:27:04.000Z,22.61
2022-09-28T16:29:40.815Z,22.61
2022-09-28T16:32:25.639Z,22.60
2022-09-28T16:35:13.591Z,22.58
2022-09-28T16:37:43.335Z,22.60
2022-09-28T16:40:10.711Z,22.61
2022-09-28T16:42:38.980Z,22.60
2022-09-28T16:45:08.026Z,22.60
2022-09-28T16:47:35.005Z,22.59
2022-09-28T16:50:06.314Z,22.59
2022-09-28T16:52:54.810Z,22.58
2022-09-28T16:55:39.407Z,22.59
2022-09-28T16:58:07.011Z,22.58
2022-09-28T17:00:33.586Z,22.58
2022-09-28T17:03:00.232Z,22.58
2022-09-28T17:05:26.766Z,22.58
2022-09-28T17:08:04.063Z,22.57
2022-09-28T17:11:02.144Z,22.56
2022-09-28T17:13:31.462Z,22.54
2022-09-28T17:15:58.935Z,22.55
2022-09-28T17:18:25.772Z,22.54
2022-09-28T17:20:55.058Z,22.54
2022-09-28T17:23:21.908Z,22.54
2022-09-28T17:25:48.977Z,22.54
2022-09-28T17:28:31.719Z,22.54
2022-09-28T17:30:58.317Z,22.53
2022-09-28T17:33:25.237Z,22.53
2022-09-28T17:35:54.347Z,22.54
2022-09-28T17:38:20.833Z,22.53
2022-09-28T17:40:48.174Z,22.52
2022-09-28T17:43:14.940Z,22.52
2022-09-28T17:45:41.788Z,22.52
2022-09-28T17:48:15.823Z,22.52
2022-09-28T17:50:46.442Z,22.51
2022-09-28T17:53:13.652Z,22.51
2022-09-28T17:55:40.634Z,22.51
2022-09-28T17:58:17.830Z,22.49
2022-09-28T18:00:46.226Z,22.49
2022-09-28T18:03:23.482Z,22.50
2022-09-28T18:05:58.240Z,22.49
2022-09-28T18:08:24.762Z,22.49
2022-09-28T18:10:51.266Z,22.49
2022-09-28T18:13:22.686Z,22.48
2022-09-28T18:15:53.338Z,22.47
2022-09-28T18:18:20.432Z,22.46
2022-09-28T18:20:46.954Z,22.47
2022-09-28T18:23:13.822Z,22.47
2022-09-28T18:25:44.722Z,22.47
2022-09-28T18:28:12.673Z,22.45
2022-09-28T18:33:21.071Z,22.46
2022-09-28T18:35:54.619Z,22.46
2022-09-28T18:38:21.622Z,22.43
2022-09-28T18:40:48.380Z,22.43
2022-09-28T18:43:16.370Z,22.43
2022-09-28T18:45:42.936Z,22.44
2022-09-28T18:48:09.548Z,22.43
2022-09-28T18:50:36.115Z,22.43
2022-09-28T18:53:11.938Z,22.41
2022-09-28T18:55:42.460Z,22.41
2022-09-28T18:58:09.743Z,22.41
2022-09-28T19:03:23.087Z,22.40
2022-09-28T19:05:49.803Z,22.40
2022-09-28T19:08:16.491Z,22.37
2022-09-28T19:10:44.546Z,22.39
2022-09-28T19:13:10.998Z,22.39
2022-09-28T19:15:37.572Z,22.38
2022-09-28T19:18:04.699Z,22.38
2022-09-28T19:20:33.123Z,22.37
2022-09-28T19:22:59.735Z,22.37
2022-09-28T19:25:34.070Z,22.37
2022-09-28T19:28:00.805Z,22.36
2022-09-28T19:30:27.483Z,22.36
2022-09-28T19:35:34.440Z,22.35
2022-09-28T19:38:00.932Z,22.35
2022-09-28T19:40:27.543Z,22.35
2022-09-28T19:42:54.160Z,22.34
2022-09-28T19:45:20.706Z,22.33
2022-09-28T19:47:49.050Z,22.32
2022-09-28T19:50:15.749Z,22.31
2022-09-28T19:52:42.316Z,22.31
2022-09-28T19:55:08.960Z,22.29
2022-09-28T20:00:21.157Z,22.31
2022-09-28T20:02:47.692Z,22.29
2022-09-28T20:05:14.753Z,22.29
2022-09-28T20:07:41.230Z,22.29
2022-09-28T20:10:08.006Z,22.27
2022-09-28T20:12:34.614Z,22.29
2022-09-28T20:15:01.150Z,22.28
2022-09-28T20:17:27.724Z,22.29
2022-09-28T20:19:54.231Z,22.31
2022-09-28T20:22:21.346Z,22.30
2022-09-28T20:24:47.908Z,22.30
2022-09-28T20:27:14.586Z,22.30
2022-09-28T20:29:42.977Z,22.29
2022-09-28T20:32:09.461Z,22.30
2022-09-28T20:34:35.934Z,22.30
2022-09-28T20:37:02.485Z,22.30
2022-09-28T20:39:29.261Z,22.30
2022-09-28T20:41:57.630Z,22.29
2022-09-28T20:44:24.196Z,22.28
2022-09-28T20:46:51.415Z,22.28
2022-09-28T20:49:17.914Z,22.28
2022-09-28T20:51:44.777Z,22.28
2022-09-28T20:54:11.757Z,22.27
2022-09-28T20:56:38.905Z,22.27
2022-09-28T20:59:11.284Z,22.28
2022-09-28T21:01:38.515Z,22.28
2022-09-28T21:04:07.284Z,22.26
2022-09-28T21:06:36.797Z,22.27
2022-09-28T21:09:04.787Z,22.27
2022-09-28T21:11:32.091Z,22.26
2022-09-28T21:14:01.855Z,22.25
2022-09-28T21:16:30.577Z,22.25
2022-09-28T21:18:57.521Z,22.26
2022-09-28T21:21:25.383Z,22.23
2022-09-28T21:23:53.087Z,22.25
2022-09-28T21:26:27.169Z,22.22
2022-09-28T21:28:58.220Z,22.24
2022-09-28T21:31:29.157Z,22.23
2022-09-28T21:33:56.825Z,22.23
2022-09-28T21:36:23.410Z,22.23
2022-09-28T21:38:50.215Z,22.22
2022-09-28T21:41:17.222Z,22.23
2022-09-28T21:43:43.781Z,22.21
2022-09-28T21:46:10.851Z,22.22
2022-09-28T21:48:37.349Z,22.21
2022-09-28T21:51:06.579Z,22.19
2022-09-28T21:53:35.681Z,22.21
2022-09-28T21:56:04.623Z,22.19
2022-09-28T21:58:33.536Z,22.19
2022-09-28T22:01:13.190Z,22.18
2022-09-28T22:03:40.273Z,22.18
2022-09-28T22:06:07.509Z,22.19
2022-09-28T22:08:35.258Z,22.17
2022-09-28T22:11:05.626Z,22.18
2022-09-28T22:13:35.017Z,22.17
2022-09-28T22:16:02.082Z,22.16
2022-09-28T22:18:30.253Z,22.16
2022-09-28T22:21:02.836Z,22.17
2022-09-28T22:23:30.231Z,22.15
2022-09-28T22:26:07.735Z,22.15
2022-09-28T22:28:34.887Z,22.14
2022-09-28T22:31:01.684Z,22.13
2022-09-28T22:33:28.416Z,22.11
2022-09-28T22:35:55.484Z,22.13
2022-09-28T22:38:24.153Z,22.11
2022-09-28T22:40:52.643Z,22.11
2022-09-28T22:43:19.200Z,22.10
2022-09-28T22:45:45.939Z,22.12
2022-09-28T22:48:13.178Z,22.11
2022-09-28T22:50:47.158Z,22.10
2022-09-28T22:53:14.103Z,22.10
2022-09-28T22:55:41.729Z,22.10
2022-09-28T22:58:08.189Z,22.09
2022-09-28T23:00:34.650Z,22.07
2022-09-28T23:03:01.227Z,22.07
2022-09-28T23:05:27.766Z,22.07
2022-09-28T23:07:54.215Z,22.09
2022-09-28T23:10:20.723Z,22.07
2022-09-28T23:12:47.156Z,22.07
2022-09-28T23:15:13.750Z,22.05
2022-09-28T23:21:28.317Z,22.06
2022-09-28T23:24:01.567Z,22.04
2022-09-28T23:26:31.639Z,22.04
2022-09-28T23:28:59.566Z,22.01
2022-09-28T23:31:31.602Z,22.02
2022-09-28T23:34:02.284Z,22.02
2022-09-28T23:36:29.713Z,22.02
2022-09-28T23:38:56.472Z,22.01
2022-09-28T23:41:22.940Z,22.00
2022-09-28T23:43:49.457Z,22.02
2022-09-28T23:46:20.466Z,22.00
2022-09-28T23:48:47.652Z,22.00
2022-09-28T23:51:14.211Z,22.00
2022-09-28T23:53:40.766Z,22.00
